Time;durP1;ratioP1;P1;durP2;ratioP2;P2;SDS_P1;SDS_P2;PMS_P1;PMS_P2;Temp;Humidity;BMP_temperature;BMP_pressure;BME280_temperature;BME280_humidity;BME280_pressure;Samples;Min_cycle;Max_cycle;Signal;HPM_P1;HPM_P2
2023/01/23 00:01:01;;;;;;;14.02;11.93;;;1.10;99.90;;;;;;5093018;28;20959;-68
2023/01/23 00:03:26;;;;;;;13.55;12.15;;;1.20;99.90;;;;;;5092583;28;20393;-68
2023/01/23 00:05:59;;;;;;;13.30;11.90;;;1.30;99.90;;;;;;5092629;28;20811;-68
2023/01/23 00:08:25;;;;;;;13.18;11.80;;;1.30;99.90;;;;;;5093303;28;20969;-68
2023/01/23 00:10:51;;;;;;;13.43;12.02;;;1.30;99.90;;;;;;5092950;28;20474;-68
2023/01/23 00:13:16;;;;;;;13.10;11.70;;;1.20;99.90;;;;;;5074241;28;20416;-68
2023/01/23 00:15:42;;;;;;;13.20;11.87;;;1.10;99.90;;;;;;5074704;28;20422;-69
2023/01/23 00:18:08;;;;;;;13.63;11.57;;;1.10;99.90;;;;;;5091453;28;20390;-69
2023/01/23 00:20:36;;;;;;;12.43;11.23;;;1.20;99.90;;;;;;5092790;28;20941;-69
2023/01/23 00:23:02;;;;;;;12.38;11.18;;;1.10;99.90;;;;;;5092335;28;20389;-69
2023/01/23 00:25:27;;;;;;;12.60;11.30;;;1.10;99.90;;;;;;5091918;28;20851;-69
2023/01/23 00:27:53;;;;;;;13.20;11.63;;;1.00;99.90;;;;;;5092782;28;20382;-69
2023/01/23 00:30:18;;;;;;;13.47;12.10;;;1.00;99.90;;;;;;5092638;28;20835;-69
2023/01/23 00:32:44;;;;;;;12.83;11.53;;;1.10;99.90;;;;;;5091908;28;20369;-68
2023/01/23 00:35:09;;;;;;;12.63;10.73;;;1.00;99.90;;;;;;5092394;28;20481;-69
2023/01/23 00:37:35;;;;;;;14.47;11.73;;;1.10;99.90;;;;;;5091348;28;20477;-69
2023/01/23 00:40:01;;;;;;;13.70;11.30;;;1.10;99.90;;;;;;5092511;28;20386;-69
2023/01/23 00:42:26;;;;;;;12.40;11.10;;;1.00;99.90;;;;;;5092099;28;20378;-69
2023/01/23 00:44:52;;;;;;;13.30;11.90;;;1.10;99.90;;;;;;5091998;28;20439;-69
2023/01/23 00:47:17;;;;;;;12.37;11.07;;;1.10;99.90;;;;;;5092170;28;20407;-69
2023/01/23 00:49:43;;;;;;;12.33;11.03;;;1.10;99.90;;;;;;5091671;28;20426;-69
2023/01/23 00:52:08;;;;;;;13.53;11.30;;;1.10;99.90;;;;;;5092414;28;20784;-69
2023/01/23 00:54:34;;;;;;;12.43;11.13;;;1.10;99.90;;;;;;5091550;28;20431;-69
2023/01/23 00:56:59;;;;;;;12.53;11.10;;;1.10;99.90;;;;;;5092108;28;20382;-69
2023/01/23 00:59:25;;;;;;;13.00;11.30;;;1.10;99.90;;;;;;5092238;28;20482;-69
2023/01/23 01:01:50;;;;;;;13.07;11.67;;;1.00;99.90;;;;;;5091883;28;20377;-69
2023/01/23 01:04:16;;;;;;;12.20;10.90;;;1.00;99.90;;;;;;5090966;28;20876;-69
2023/01/23 01:06:42;;;;;;;12.67;11.37;;;1.10;99.90;;;;;;5091490;28;20433;-69
2023/01/23 01:09:07;;;;;;;12.30;11.00;;;1.20;99.90;;;;;;5073786;28;20468;-69
2023/01/23 01:11:32;;;;;;;12.07;10.77;;;1.10;99.90;;;;;;5091991;28;20844;-69
2023/01/23 01:13:59;;;;;;;11.60;10.40;;;1.10;99.90;;;;;;5090851;28;20390;-69
2023/01/23 01:16:24;;;;;;;12.80;11.40;;;1.20;99.90;;;;;;5073151;28;20401;-69
2023/01/23 01:18:50;;;;;;;12.10;10.90;;;1.10;99.90;;;;;;5091828;28;20876;-69
2023/01/23 01:21:17;;;;;;;12.45;11.15;;;1.00;99.90;;;;;;5091718;28;20378;-69
2023/01/23 01:23:43;;;;;;;12.77;11.47;;;1.00;99.90;;;;;;5090928;28;20378;-69
2023/01/23 01:26:09;;;;;;;13.00;11.60;;;1.00;99.90;;;;;;5091347;28;20501;-69
2023/01/23 01:28:36;;;;;;;12.60;11.27;;;1.00;99.90;;;;;;5091699;28;20432;-68
2023/01/23 01:31:06;;;;;;;13.38;11.98;;;1.00;99.90;;;;;;5072934;28;20402;-69
2023/01/23 01:33:33;;;;;;;12.35;11.10;;;1.10;99.90;;;;;;5090856;28;20767;-69
2023/01/23 01:35:59;;;;;;;12.70;11.40;;;1.20;99.90;;;;;;5091252;28;20386;-69
2023/01/23 01:38:25;;;;;;;12.23;10.93;;;1.10;99.90;;;;;;5091516;28;20452;-68
2023/01/23 01:40:50;;;;;;;12.02;10.82;;;1.20;99.90;;;;;;5091272;28;20461;-69
2023/01/23 01:43:25;;;;;;;12.13;10.93;;;1.10;99.90;;;;;;5090299;28;20406;-69
2023/01/23 01:46:11;;;;;;;15.07;11.80;;;0.90;99.90;;;;;;5090678;28;20449;-69
2023/01/23 01:48:46;;;;;;;12.93;11.63;;;0.90;99.90;;;;;;5090356;28;20409;-69
2023/01/23 01:51:44;;;;;;;11.85;10.65;;;1.00;99.90;;;;;;5091204;28;20806;-69
2023/01/23 01:54:24;;;;;;;12.77;11.40;;;1.10;99.90;;;;;;5072151;28;20382;-69
2023/01/23 01:57:02;;;;;;;12.65;11.35;;;1.10;99.90;;;;;;5090865;28;20382;-69
2023/01/23 01:59:33;;;;;;;13.30;11.15;;;1.00;99.90;;;;;;5070773;28;20436;-69
2023/01/23 02:02:13;;;;;;;13.80;11.73;;;0.90;99.90;;;;;;5077563;28;20464;-69
2023/01/23 02:04:44;;;;;;;12.07;10.88;;;0.90;99.90;;;;;;5090224;28;20388;-69
2023/01/23 02:07:23;;;;;;;14.30;12.00;;;0.80;99.90;;;;;;5126947;22;20424;-70
2023/01/23 02:09:49;;;;;;;12.98;11.57;;;0.80;99.90;;;;;;5111958;28;20420;-70
2023/01/23 02:12:14;;;;;;;14.10;11.60;;;0.80;99.90;;;;;;5112282;28;20365;-70
2023/01/23 02:14:40;;;;;;;13.63;11.70;;;0.80;99.90;;;;;;5111105;28;20487;-69
2023/01/23 02:17:06;;;;;;;11.43;10.15;;;0.90;99.90;;;;;;5095556;28;20425;-69
2023/01/23 02:19:58;;;;;;;12.87;11.57;;;0.70;99.90;;;;;;5090828;28;20421;-69
2023/01/23 02:22:32;;;;;;;12.80;11.50;;;0.70;99.90;;;;;;5090795;28;20460;-69
2023/01/23 02:25:09;;;;;;;11.50;10.30;;;0.70;99.90;;;;;;5091049;28;20404;-70
2023/01/23 02:27:35;;;;;;;12.65;11.35;;;0.70;99.90;;;;;;5072963;28;20446;-70
2023/01/23 02:30:00;;;;;;;12.75;11.43;;;0.70;99.90;;;;;;5091071;28;20765;-70
2023/01/23 02:32:26;;;;;;;12.73;10.50;;;0.70;99.90;;;;;;5090371;28;20389;-69
2023/01/23 02:34:55;;;;;;;12.57;11.27;;;0.70;99.90;;;;;;5089215;28;20787;-70
2023/01/23 02:37:26;;;;;;;13.40;12.10;;;0.80;99.90;;;;;;5070589;28;20387;-70
2023/01/23 02:39:52;;;;;;;11.93;10.73;;;0.80;99.90;;;;;;5067713;28;20441;-69
2023/01/23 02:42:18;;;;;;;12.40;11.20;;;0.90;99.90;;;;;;5090711;28;20390;-71
2023/01/23 02:44:44;;;;;;;12.07;10.88;;;0.90;99.90;;;;;;5072010;28;20381;-71
2023/01/23 02:47:11;;;;;;;12.40;11.10;;;0.80;99.90;;;;;;5090437;28;20398;-70
2023/01/23 02:49:41;;;;;;;12.15;10.95;;;0.80;99.90;;;;;;5090624;28;20381;-70
2023/01/23 02:52:08;;;;;;;12.05;10.85;;;0.80;99.90;;;;;;5090638;28;20438;-71
2023/01/23 02:54:34;;;;;;;13.18;10.50;;;0.80;99.90;;;;;;5072623;28;20941;-71
2023/01/23 02:56:59;;;;;;;13.15;11.23;;;0.80;99.90;;;;;;5072672;28;20398;-71
2023/01/23 03:02:09;;;;;;;11.32;10.13;;;0.90;99.90;;;;;;5097689;28;20434;-70
2023/01/23 03:04:35;;;;;;;14.68;12.85;;;0.90;99.90;;;;;;5097107;28;20385;-71
2023/01/23 03:07:00;;;;;;;13.57;11.95;;;0.90;99.90;;;;;;5097492;28;20935;-70
2023/01/23 03:09:26;;;;;;;11.65;10.45;;;0.90;99.90;;;;;;5097519;28;20706;-70
2023/01/23 03:11:52;;;;;;;11.60;10.48;;;1.00;99.90;;;;;;5097315;28;20464;-70
2023/01/23 03:14:20;;;;;;;11.23;10.13;;;1.10;99.90;;;;;;5096933;28;20853;-70
2023/01/23 03:16:50;;;;;;;11.43;10.32;;;1.10;99.90;;;;;;5079152;28;20413;-70
2023/01/23 03:19:16;;;;;;;11.40;10.30;;;1.10;99.90;;;;;;5097511;28;20480;-71
2023/01/23 03:21:42;;;;;;;10.77;9.65;;;1.10;99.90;;;;;;5097495;28;20438;-71
2023/01/23 03:24:10;;;;;;;10.67;9.33;;;1.10;99.90;;;;;;5096743;28;20393;-70
2023/01/23 03:26:44;;;;;;;7.43;6.63;;;1.10;99.90;;;;;;5096878;28;20409;-70
2023/01/23 03:32:15;;;;;;;6.15;5.55;;;1.20;99.90;;;;;;5097542;28;20377;-70
2023/01/23 03:34:41;;;;;;;5.35;4.85;;;1.30;99.90;;;;;;5096583;28;20393;-71
2023/01/23 03:37:07;;;;;;;5.27;4.77;;;1.30;99.90;;;;;;5076967;28;20383;-70
2023/01/23 03:42:17;;;;;;;4.60;4.10;;;1.60;99.90;;;;;;5098645;28;20938;-71
2023/01/23 03:44:42;;;;;;;4.35;3.95;;;1.60;99.90;;;;;;5097389;28;20378;-71
2023/01/23 03:47:08;;;;;;;4.70;4.20;;;1.50;99.90;;;;;;5097550;28;20401;-71
2023/01/23 03:49:34;;;;;;;4.20;3.80;;;1.60;99.90;;;;;;5097081;28;20438;-70
2023/01/23 03:52:00;;;;;;;4.00;3.60;;;1.70;99.90;;;;;;5096893;28;20464;-70
2023/01/23 03:54:25;;;;;;;3.92;3.45;;;1.80;99.90;;;;;;5096566;28;20398;-70
2023/01/23 03:56:51;;;;;;;4.18;3.78;;;1.80;99.90;;;;;;5097288;28;20484;-70
2023/01/23 03:59:17;;;;;;;4.82;4.00;;;1.90;99.90;;;;;;5096807;28;20382;-71
2023/01/23 04:01:43;;;;;;;4.20;3.80;;;1.90;99.90;;;;;;5096749;28;20425;-70
2023/01/23 04:04:08;;;;;;;4.40;4.00;;;1.90;99.90;;;;;;5096147;28;20385;-71
2023/01/23 04:06:34;;;;;;;4.30;3.90;;;1.90;99.90;;;;;;5096901;28;20435;-70
2023/01/23 04:08:59;;;;;;;4.20;3.80;;;1.90;99.90;;;;;;5096930;28;20438;-70
2023/01/23 04:11:26;;;;;;;4.03;3.63;;;1.80;99.90;;;;;;5077171;28;20382;-70
2023/01/23 04:13:52;;;;;;;4.50;3.97;;;1.90;99.90;;;;;;5093171;28;20431;-70
2023/01/23 04:16:17;;;;;;;4.07;3.65;;;1.90;99.90;;;;;;5093600;28;20394;-71
2023/01/23 04:18:43;;;;;;;4.07;3.67;;;1.80;99.90;;;;;;5093858;28;20435;-70
2023/01/23 04:21:09;;;;;;;3.77;3.47;;;1.80;99.90;;;;;;5093707;28;20386;-70
2023/01/23 04:23:34;;;;;;;4.07;3.77;;;1.80;99.90;;;;;;5092901;28;20422;-70
2023/01/23 04:26:00;;;;;;;4.67;3.77;;;1.80;99.90;;;;;;5093847;28;20920;-70
2023/01/23 04:28:26;;;;;;;3.60;3.30;;;1.80;99.90;;;;;;5093761;28;20431;-70
2023/01/23 04:30:52;;;;;;;3.58;3.20;;;1.80;99.90;;;;;;5075247;28;20465;-71
2023/01/23 04:33:18;;;;;;;3.58;3.28;;;1.90;99.90;;;;;;5092564;28;20390;-70
2023/01/23 04:35:53;;;;;;;3.90;3.50;;;2.00;99.90;;;;;;5093858;28;20489;-70
2023/01/23 04:38:18;;;;;;;3.60;3.30;;;2.00;99.90;;;;;;5094110;28;20430;-71
2023/01/23 04:40:45;;;;;;;3.67;3.23;;;2.00;99.90;;;;;;5094288;28;20834;-70
2023/01/23 04:43:11;;;;;;;3.50;3.10;;;2.00;99.90;;;;;;5093251;28;20378;-70
2023/01/23 04:45:37;;;;;;;3.58;3.20;;;2.00;99.90;;;;;;5093476;28;20404;-70
2023/01/23 04:48:02;;;;;;;3.22;2.92;;;1.90;99.90;;;;;;5093137;28;20382;-70
2023/01/23 04:50:28;;;;;;;3.60;3.20;;;2.10;97.60;;;;;;5093532;28;20374;-70
2023/01/23 04:52:53;;;;;;;3.50;3.20;;;2.10;97.60;;;;;;5092858;28;20469;-70
2023/01/23 04:55:19;;;;;;;3.67;3.10;;;2.10;97.50;;;;;;5093497;28;20460;-70
2023/01/23 04:57:44;;;;;;;3.25;2.95;;;2.20;95.90;;;;;;5092773;28;20531;-70
2023/01/23 05:00:11;;;;;;;3.60;2.97;;;2.20;95.30;;;;;;5093175;28;20374;-71
2023/01/23 05:02:36;;;;;;;3.10;2.90;;;2.10;96.40;;;;;;5092213;28;20385;-70
2023/01/23 05:05:02;;;;;;;4.03;3.37;;;2.10;99.90;;;;;;5093464;28;20473;-70
2023/01/23 05:07:27;;;;;;;4.43;4.03;;;2.10;98.00;;;;;;5093249;28;20451;-70
2023/01/23 05:09:53;;;;;;;3.40;3.07;;;2.10;99.90;;;;;;5093518;28;20393;-70
2023/01/23 05:12:18;;;;;;;3.53;3.23;;;2.10;98.10;;;;;;5093949;28;20462;-70
2023/01/23 05:14:44;;;;;;;3.30;3.00;;;2.20;97.20;;;;;;5092732;28;20816;-71
2023/01/23 05:17:09;;;;;;;3.20;2.90;;;2.20;97.60;;;;;;5093589;28;20393;-70
2023/01/23 05:19:35;;;;;;;3.67;3.07;;;2.20;98.40;;;;;;5093762;28;20382;-70
2023/01/23 05:22:00;;;;;;;3.50;3.20;;;2.10;98.10;;;;;;5092849;28;20748;-70
2023/01/23 05:24:26;;;;;;;4.03;3.60;;;2.10;97.80;;;;;;5091512;28;20436;-70
2023/01/23 05:26:51;;;;;;;3.90;3.50;;;2.10;98.00;;;;;;5092835;28;20408;-70
2023/01/23 05:29:17;;;;;;;4.20;3.10;;;2.10;96.10;;;;;;5093421;28;20718;-71
2023/01/23 05:31:42;;;;;;;4.00;3.10;;;2.10;97.80;;;;;;5093243;28;20394;-70
2023/01/23 05:34:08;;;;;;;3.70;3.30;;;2.20;97.50;;;;;;5091168;28;20394;-70
2023/01/23 05:36:33;;;;;;;3.60;3.30;;;2.20;98.50;;;;;;5092845;28;20482;-70
2023/01/23 05:38:59;;;;;;;3.50;3.20;;;2.10;97.30;;;;;;5092611;28;20385;-70
2023/01/23 05:41:24;;;;;;;3.92;3.63;;;2.20;97.90;;;;;;5092397;28;20388;-70
2023/01/23 05:43:50;;;;;;;4.80;3.90;;;2.20;97.20;;;;;;5091223;28;20400;-70
2023/01/23 05:46:16;;;;;;;4.40;4.00;;;2.20;96.70;;;;;;5091871;28;20471;-70
2023/01/23 05:48:41;;;;;;;4.00;3.60;;;2.20;97.60;;;;;;5091935;28;20393;-70
2023/01/23 05:51:07;;;;;;;4.00;3.50;;;2.20;98.70;;;;;;5092026;28;20380;-70
2023/01/23 05:53:32;;;;;;;4.03;3.63;;;2.20;99.30;;;;;;5091112;28;20389;-70
2023/01/23 05:55:58;;;;;;;3.93;3.63;;;2.10;98.90;;;;;;5091628;28;20443;-70
2023/01/23 05:58:23;;;;;;;3.90;3.50;;;2.10;99.90;;;;;;5090902;28;20439;-70
2023/01/23 06:00:49;;;;;;;5.00;4.10;;;2.10;99.90;;;;;;5091306;28;20477;-70
2023/01/23 06:03:14;;;;;;;4.25;3.85;;;2.10;99.90;;;;;;5090443;28;20804;-71
2023/01/23 06:05:40;;;;;;;4.28;3.88;;;2.20;99.90;;;;;;5090706;28;20394;-70
2023/01/23 06:08:06;;;;;;;4.10;3.70;;;2.10;99.90;;;;;;5091659;28;20856;-70
2023/01/23 06:10:31;;;;;;;4.85;4.20;;;2.00;99.90;;;;;;5091144;28;20852;-71
2023/01/23 06:12:57;;;;;;;4.35;3.95;;;2.00;99.90;;;;;;5090634;28;20389;-70
2023/01/23 06:15:22;;;;;;;4.20;3.80;;;2.10;99.90;;;;;;5091125;28;20516;-70
2023/01/23 06:17:48;;;;;;;4.40;4.00;;;2.10;99.90;;;;;;5091249;28;20748;-70
2023/01/23 06:20:13;;;;;;;4.43;4.03;;;2.10;99.90;;;;;;5091292;28;20386;-70
2023/01/23 06:22:39;;;;;;;4.10;3.70;;;2.10;99.90;;;;;;5091030;28;20385;-70
2023/01/23 06:25:05;;;;;;;5.00;4.10;;;2.10;99.90;;;;;;5086037;28;20564;-70
2023/01/23 06:27:31;;;;;;;4.63;4.10;;;2.00;99.90;;;;;;5088717;28;20535;-70
2023/01/23 06:29:56;;;;;;;4.40;4.00;;;2.10;99.90;;;;;;5090729;28;20469;-70
2023/01/23 06:32:22;;;;;;;4.13;3.53;;;2.20;97.80;;;;;;5090914;28;20382;-70
2023/01/23 06:34:48;;;;;;;4.10;3.70;;;2.10;99.90;;;;;;5071453;28;20413;-70
2023/01/23 06:37:13;;;;;;;4.28;3.88;;;2.20;99.90;;;;;;5090771;28;20381;-69
2023/01/23 06:39:39;;;;;;;3.93;3.53;;;2.40;95.80;;;;;;5090870;28;20382;-70
2023/01/23 06:42:08;;;;;;;3.63;3.33;;;2.40;94.10;;;;;;5090964;28;20834;-70
2023/01/23 06:44:37;;;;;;;3.60;3.30;;;2.30;94.50;;;;;;5089896;28;20443;-70
2023/01/23 06:47:03;;;;;;;3.35;3.05;;;2.20;93.30;;;;;;5090701;28;20405;-70
2023/01/23 06:49:29;;;;;;;3.50;2.97;;;2.10;93.70;;;;;;5090610;28;20473;-70
2023/01/23 06:51:54;;;;;;;3.67;3.20;;;2.10;92.10;;;;;;5090140;28;20473;-70
2023/01/23 06:54:20;;;;;;;2.70;2.40;;;2.00;92.40;;;;;;5089743;28;20421;-70
2023/01/23 06:56:45;;;;;;;3.40;2.60;;;2.10;91.20;;;;;;5090694;28;20864;-70
2023/01/23 06:59:11;;;;;;;3.50;3.20;;;1.90;90.90;;;;;;5090654;28;20816;-70
2023/01/23 07:01:36;;;;;;;3.10;2.80;;;2.00;91.90;;;;;;5090791;28;20944;-70
2023/01/23 07:04:02;;;;;;;3.25;2.65;;;2.00;91.90;;;;;;5089741;28;20386;-70
2023/01/23 07:06:30;;;;;;;2.75;2.55;;;2.00;91.90;;;;;;5090474;28;21215;-70
2023/01/23 07:08:55;;;;;;;4.28;2.90;;;2.00;91.50;;;;;;5090685;28;20883;-70
2023/01/23 07:11:21;;;;;;;3.00;2.70;;;1.90;92.60;;;;;;5090403;28;20394;-70
2023/01/23 07:13:46;;;;;;;2.90;2.70;;;2.00;93.00;;;;;;5090057;28;20377;-70
2023/01/23 07:16:12;;;;;;;3.25;2.95;;;1.90;92.80;;;;;;5090502;28;20425;-70
2023/01/23 07:18:37;;;;;;;3.00;2.80;;;1.90;91.40;;;;;;5090711;28;20378;-70
2023/01/23 07:21:05;;;;;;;2.88;2.58;;;2.00;93.50;;;;;;5090761;28;20386;-70
2023/01/23 07:23:31;;;;;;;3.05;2.75;;;2.00;92.60;;;;;;5092817;28;20389;-70
2023/01/23 07:26:02;;;;;;;3.10;2.80;;;2.00;93.00;;;;;;5091209;28;20764;-71
2023/01/23 07:28:29;;;;;;;3.22;2.88;;;1.90;93.60;;;;;;5090849;28;20389;-70
2023/01/23 07:30:55;;;;;;;2.60;2.40;;;2.00;91.90;;;;;;5090650;28;20378;-71
2023/01/23 07:33:21;;;;;;;2.60;2.40;;;1.90;92.90;;;;;;5089890;28;20469;-69
2023/01/23 07:35:46;;;;;;;2.43;2.23;;;2.00;93.80;;;;;;5081692;28;20530;-70
2023/01/23 07:38:12;;;;;;;3.60;2.50;;;2.00;92.80;;;;;;5075855;28;20396;-70
2023/01/23 07:40:40;;;;;;;2.77;2.57;;;1.90;94.10;;;;;;5090448;28;20389;-70
2023/01/23 07:43:05;;;;;;;4.88;3.38;;;1.90;92.70;;;;;;5071291;28;20386;-70
2023/01/23 07:45:30;;;;;;;3.33;2.77;;;1.90;94.30;;;;;;5089780;28;20918;-70
2023/01/23 07:47:56;;;;;;;2.50;2.30;;;1.90;92.30;;;;;;5092365;28;20973;-70
2023/01/23 07:50:22;;;;;;;2.70;2.30;;;2.00;91.40;;;;;;5075842;28;20398;-70
2023/01/23 07:52:47;;;;;;;3.43;2.60;;;2.00;91.40;;;;;;5093195;28;20388;-70
2023/01/23 07:55:13;;;;;;;2.23;2.03;;;2.00;90.30;;;;;;5093887;28;20808;-70
2023/01/23 07:57:38;;;;;;;2.80;2.33;;;2.40;91.00;;;;;;5075225;28;20390;-71
2023/01/23 08:00:04;;;;;;;2.87;2.30;;;2.00;88.50;;;;;;5093887;28;20413;-70
2023/01/23 08:02:30;;;;;;;2.40;2.10;;;2.10;88.90;;;;;;5075216;28;20378;-70
2023/01/23 08:04:55;;;;;;;2.25;2.05;;;2.10;87.50;;;;;;5093461;28;20381;-70
2023/01/23 08:07:22;;;;;;;2.40;2.20;;;2.10;86.20;;;;;;5129617;22;20424;-69
2023/01/23 08:09:50;;;;;;;2.90;2.20;;;2.10;85.60;;;;;;5111738;28;20778;-69
2023/01/23 08:12:15;;;;;;;2.70;2.50;;;2.00;87.90;;;;;;5113971;28;20463;-69
2023/01/23 08:14:41;;;;;;;2.17;1.98;;;2.00;90.00;;;;;;5113048;28;20850;-69
2023/01/23 08:17:06;;;;;;;2.40;2.20;;;2.00;88.80;;;;;;5099661;28;20386;-69
2023/01/23 08:19:32;;;;;;;2.33;2.22;;;2.00;90.60;;;;;;5093252;28;20390;-68
2023/01/23 08:21:57;;;;;;;2.70;2.50;;;2.10;90.10;;;;;;5093300;28;20382;-69
2023/01/23 08:24:23;;;;;;;2.80;2.10;;;2.10;89.60;;;;;;5092530;28;20818;-69
2023/01/23 08:26:48;;;;;;;2.23;2.03;;;2.10;88.50;;;;;;5093020;28;20900;-69
2023/01/23 08:29:13;;;;;;;2.20;2.00;;;2.20;87.80;;;;;;5092925;28;20892;-69
2023/01/23 08:31:39;;;;;;;2.77;2.23;;;2.20;86.30;;;;;;5092927;28;20393;-70
2023/01/23 08:34:05;;;;;;;2.87;2.60;;;2.10;90.00;;;;;;5092349;28;20389;-69
2023/01/23 08:36:31;;;;;;;2.50;2.30;;;2.20;87.00;;;;;;5077354;28;20893;-69
2023/01/23 08:38:56;;;;;;;2.55;2.20;;;2.20;88.80;;;;;;5072718;28;20380;-69
2023/01/23 08:41:22;;;;;;;2.70;2.50;;;2.30;90.00;;;;;;5072652;28;20521;-69
2023/01/23 08:43:49;;;;;;;2.53;2.33;;;2.40;89.00;;;;;;5081541;28;20390;-68
2023/01/23 08:46:14;;;;;;;2.67;2.47;;;2.40;87.90;;;;;;5092616;28;20398;-69
2023/01/23 08:48:40;;;;;;;2.60;2.40;;;2.40;88.20;;;;;;5092899;28;20394;-71
2023/01/23 08:51:09;;;;;;;3.00;2.50;;;2.40;88.70;;;;;;5092756;28;20374;-69
2023/01/23 08:53:35;;;;;;;2.83;2.60;;;2.40;91.70;;;;;;5091956;28;20469;-69
2023/01/23 08:56:06;;;;;;;2.60;2.40;;;2.50;88.40;;;;;;5092533;28;20477;-69
2023/01/23 08:58:32;;;;;;;3.00;2.55;;;2.50;90.00;;;;;;5099942;28;20409;-69
2023/01/23 09:00:58;;;;;;;3.05;2.58;;;2.40;88.90;;;;;;5092562;28;20389;-69
2023/01/23 09:03:23;;;;;;;2.80;2.60;;;2.50;91.10;;;;;;5091850;28;20374;-69
2023/01/23 09:05:49;;;;;;;2.87;2.30;;;2.60;89.90;;;;;;5092262;28;20951;-69
2023/01/23 09:08:14;;;;;;;3.10;2.50;;;2.60;86.00;;;;;;5092389;28;20447;-69
2023/01/23 09:10:40;;;;;;;3.20;2.80;;;2.60;85.60;;;;;;5091922;28;20433;-70
2023/01/23 09:13:06;;;;;;;3.40;2.80;;;2.70;84.90;;;;;;5091699;28;20739;-69
2023/01/23 09:15:31;;;;;;;3.10;2.60;;;2.70;85.20;;;;;;5092220;28;20446;-70
2023/01/23 09:17:57;;;;;;;3.40;3.10;;;2.80;90.20;;;;;;5092598;28;20377;-69
2023/01/23 09:20:25;;;;;;;3.10;2.80;;;2.90;84.00;;;;;;5092337;28;20817;-70
2023/01/23 09:22:51;;;;;;;3.85;2.95;;;2.70;84.40;;;;;;5091063;28;20531;-69
2023/01/23 09:25:17;;;;;;;3.45;3.15;;;2.70;86.80;;;;;;5092425;28;20520;-69
2023/01/23 09:27:43;;;;;;;3.72;3.38;;;2.70;90.60;;;;;;5091919;28;20962;-69
2023/01/23 09:30:09;;;;;;;3.60;3.30;;;2.70;89.10;;;;;;5092014;28;20428;-69
2023/01/23 09:32:34;;;;;;;4.30;3.57;;;2.80;88.80;;;;;;5091113;28;20382;-69
2023/01/23 09:35:00;;;;;;;4.10;3.70;;;2.80;86.40;;;;;;5091705;28;20386;-70
2023/01/23 09:37:28;;;;;;;4.23;3.73;;;2.90;88.30;;;;;;5091707;28;20378;-70
2023/01/23 09:39:54;;;;;;;5.38;4.30;;;2.60;89.40;;;;;;5091528;28;20401;-69
2023/01/23 09:42:23;;;;;;;4.50;3.77;;;2.70;89.30;;;;;;5091705;28;20401;-69
2023/01/23 09:45:02;;;;;;;4.97;4.18;;;2.70;91.20;;;;;;5091694;28;20477;-68
2023/01/23 09:47:36;;;;;;;5.25;4.60;;;2.60;90.60;;;;;;5091783;28;20425;-68
2023/01/23 09:50:12;;;;;;;4.82;3.88;;;2.60;91.40;;;;;;5091853;28;20378;-69
2023/01/23 09:52:46;;;;;;;4.15;3.75;;;2.60;90.50;;;;;;5090337;28;20393;-69
2023/01/23 09:55:28;;;;;;;4.80;4.30;;;2.60;91.00;;;;;;5091413;28;20740;-68
2023/01/23 09:57:56;;;;;;;3.90;3.60;;;2.70;91.60;;;;;;5091364;28;20386;-68
2023/01/23 10:00:39;;;;;;;4.30;3.90;;;2.70;92.30;;;;;;5091567;28;20414;-68
2023/01/23 10:03:14;;;;;;;4.72;3.75;;;2.60;92.10;;;;;;5090976;28;20394;-68
2023/01/23 10:05:45;;;;;;;4.03;3.63;;;2.60;91.60;;;;;;5091084;28;20493;-69
2023/01/23 10:08:49;;;;;;;4.00;3.60;;;2.60;93.60;;;;;;5091418;28;20419;-69
2023/01/23 10:11:35;;;;;;;4.50;4.00;;;2.70;92.10;;;;;;5090776;28;20396;-69
2023/01/23 10:14:30;;;;;;;4.47;4.00;;;2.60;92.00;;;;;;5090637;28;20872;-69
2023/01/23 10:17:17;;;;;;;5.33;4.70;;;2.70;92.80;;;;;;5090820;28;20432;-69
2023/01/23 10:20:18;;;;;;;5.30;4.50;;;2.70;93.90;;;;;;5091236;28;20389;-70
2023/01/23 10:23:05;;;;;;;4.70;4.20;;;2.70;93.70;;;;;;5057258;28;20470;-70
2023/01/23 10:25:36;;;;;;;5.50;4.90;;;2.60;94.20;;;;;;5090553;28;20378;-70
2023/01/23 10:28:17;;;;;;;4.72;4.22;;;2.80;93.80;;;;;;5090894;28;20460;-72
2023/01/23 10:30:52;;;;;;;4.72;4.22;;;2.80;94.20;;;;;;5090914;28;20432;-69
2023/01/23 10:33:18;;;;;;;5.13;4.10;;;2.80;93.50;;;;;;5090120;28;20786;-70
2023/01/23 10:35:50;;;;;;;5.10;4.40;;;2.80;93.60;;;;;;5088721;28;20397;-69
2023/01/23 10:38:35;;;;;;;5.10;4.15;;;2.80;94.70;;;;;;5089277;28;20514;-70
2023/01/23 10:41:13;;;;;;;5.00;4.15;;;3.00;91.80;;;;;;5091063;28;20382;-70
2023/01/23 10:43:44;;;;;;;4.90;4.07;;;3.00;92.60;;;;;;5069808;28;20874;-70
2023/01/23 10:46:19;;;;;;;4.88;4.38;;;2.90;91.50;;;;;;5070571;28;20486;-69
2023/01/23 10:48:48;;;;;;;4.27;3.80;;;3.00;93.30;;;;;;5070767;28;20430;-69
2023/01/23 10:51:36;;;;;;;4.68;4.20;;;3.10;91.30;;;;;;5070706;28;20390;-71
2023/01/23 10:54:20;;;;;;;4.57;4.18;;;3.00;90.30;;;;;;5076131;28;20891;-69
2023/01/23 10:56:57;;;;;;;4.00;3.60;;;3.10;92.50;;;;;;5090115;28;20405;-69
2023/01/23 10:59:35;;;;;;;4.97;4.47;;;3.30;91.90;;;;;;5090629;28;20451;-69
2023/01/23 11:02:12;;;;;;;4.93;4.43;;;3.20;92.40;;;;;;5089572;28;20475;-70
2023/01/23 11:04:40;;;;;;;4.93;4.38;;;3.20;93.10;;;;;;5089888;28;20515;-69
2023/01/23 11:07:13;;;;;;;4.90;4.40;;;3.30;92.60;;;;;;5090210;28;20405;-69
2023/01/23 11:10:07;;;;;;;4.40;4.00;;;3.20;90.60;;;;;;5090185;28;20394;-69
2023/01/23 11:12:44;;;;;;;5.57;4.70;;;3.20;90.90;;;;;;5061988;28;20397;-68
2023/01/23 11:15:20;;;;;;;5.23;4.63;;;3.20;92.00;;;;;;5088926;28;20393;-71
2023/01/23 11:17:46;;;;;;;4.80;4.07;;;3.30;91.70;;;;;;5090904;28;20385;-70
2023/01/23 11:20:33;;;;;;;4.93;4.43;;;3.40;93.70;;;;;;5089474;28;20488;-68
2023/01/23 11:23:01;;;;;;;4.85;4.10;;;3.50;92.70;;;;;;5093512;28;20393;-69
2023/01/23 11:25:32;;;;;;;4.75;4.35;;;3.30;92.60;;;;;;5094553;28;20389;-69
2023/01/23 11:28:24;;;;;;;4.35;3.95;;;3.40;92.10;;;;;;5094214;28;20744;-69
2023/01/23 11:31:10;;;;;;;5.22;4.65;;;3.40;91.60;;;;;;5083787;28;20535;-69
2023/01/23 11:33:40;;;;;;;5.35;4.68;;;3.40;92.20;;;;;;5093595;28;20831;-69
2023/01/23 11:36:29;;;;;;;5.45;4.80;;;3.30;91.60;;;;;;5082032;28;20388;-69
2023/01/23 11:39:04;;;;;;;5.60;4.63;;;3.40;91.60;;;;;;5073893;28;20433;-69
2023/01/23 11:41:32;;;;;;;7.30;5.18;;;3.50;91.70;;;;;;5073958;28;20391;-69
2023/01/23 11:44:06;;;;;;;6.00;4.90;;;3.50;91.80;;;;;;5089901;28;20450;-68
2023/01/23 11:46:57;;;;;;;5.20;4.70;;;3.40;91.00;;;;;;5093783;28;20761;-69
2023/01/23 11:49:44;;;;;;;6.03;5.20;;;3.40;92.90;;;;;;5093968;28;20368;-69
2023/01/23 11:52:28;;;;;;;5.88;4.45;;;3.50;92.40;;;;;;5093997;28;20374;-69
2023/01/23 11:55:37;;;;;;;5.80;4.83;;;3.50;92.60;;;;;;5093204;28;20386;-69
2023/01/23 11:58:40;;;;;;;6.22;5.15;;;3.50;93.70;;;;;;5092675;28;20782;-69
2023/01/23 12:01:27;;;;;;;5.80;5.20;;;3.40;92.80;;;;;;5093708;28;20393;-70
2023/01/23 12:04:04;;;;;;;5.40;4.90;;;3.50;92.50;;;;;;5092948;28;20390;-69
2023/01/23 12:06:43;;;;;;;6.35;5.40;;;3.60;91.80;;;;;;5093263;28;20416;-69
2023/01/23 12:09:08;;;;;;;5.72;5.00;;;3.50;93.10;;;;;;5093497;28;20894;-69
2023/01/23 12:11:47;;;;;;;6.30;5.30;;;3.50;93.10;;;;;;5093223;28;20382;-69
2023/01/23 12:14:16;;;;;;;5.60;4.93;;;3.50;95.00;;;;;;5092801;28;20531;-69
2023/01/23 12:17:07;;;;;;;6.63;5.30;;;3.60;92.30;;;;;;5093683;28;20379;-69
2023/01/23 12:19:44;;;;;;;5.82;5.00;;;3.60;93.90;;;;;;5092199;28;20861;-69
2023/01/23 12:22:21;;;;;;;6.43;5.72;;;3.70;92.60;;;;;;5093550;28;20442;-69
2023/01/23 12:25:13;;;;;;;7.05;5.35;;;3.40;95.60;;;;;;5092359;28;20469;-70
2023/01/23 12:27:47;;;;;;;6.10;4.97;;;3.50;94.10;;;;;;5093017;28;20470;-69
2023/01/23 12:30:31;;;;;;;5.65;5.05;;;3.40;95.70;;;;;;5093428;28;20397;-69
2023/01/23 12:33:32;;;;;;;5.30;4.80;;;3.50;94.20;;;;;;5091456;28;20386;-69
2023/01/23 12:36:16;;;;;;;5.85;5.00;;;3.60;95.50;;;;;;5093070;28;20385;-69
2023/01/23 12:38:58;;;;;;;5.50;4.90;;;3.60;95.40;;;;;;5092590;28;20417;-69
2023/01/23 12:41:46;;;;;;;6.07;5.13;;;3.70;95.10;;;;;;5092923;28;20393;-69
2023/01/23 12:44:19;;;;;;;6.00;5.10;;;3.70;94.40;;;;;;5091928;28;20382;-69
2023/01/23 12:46:56;;;;;;;5.90;5.38;;;3.70;93.80;;;;;;5092897;28;20405;-69
2023/01/23 12:49:42;;;;;;;6.03;5.10;;;3.50;95.50;;;;;;5092807;28;20953;-69
2023/01/23 12:52:20;;;;;;;5.85;5.32;;;3.60;95.90;;;;;;5093039;28;20374;-69
2023/01/23 12:54:53;;;;;;;6.28;5.00;;;3.60;95.50;;;;;;5092274;28;20435;-69
2023/01/23 12:57:38;;;;;;;6.55;5.15;;;3.60;94.90;;;;;;5093075;28;20461;-69
2023/01/23 13:00:38;;;;;;;7.30;5.60;;;3.60;95.70;;;;;;5072496;28;20402;-70
2023/01/23 13:03:35;;;;;;;6.10;5.50;;;3.50;95.90;;;;;;5071644;28;20375;-70
2023/01/23 13:06:07;;;;;;;6.20;5.60;;;3.60;97.00;;;;;;5072396;28;20394;-69
2023/01/23 13:09:29;;;;;;;5.43;4.90;;;3.60;97.00;;;;;;5079791;28;20485;-70
2023/01/23 13:12:10;;;;;;;5.60;5.00;;;3.70;96.90;;;;;;5030180;28;20923;-69
2023/01/23 13:14:42;;;;;;;6.03;5.22;;;3.80;96.70;;;;;;5029389;28;20387;-69
2023/01/23 13:17:45;;;;;;;5.97;5.38;;;3.90;99.90;;;;;;5068015;28;20377;-70